createdAt,value
2022-08-22T00:00:29.460Z,22.78
2022-08-22T00:03:07.041Z,22.80
2022-08-22T00:03:57.486Z,22.73
2022-08-22T00:07:13.494Z,22.71
2022-08-22T00:10:39.538Z,22.64
2022-08-22T00:14:01.111Z,22.64
2022-08-22T00:17:18.538Z,22.62
2022-08-22T00:20:31.498Z,22.51
2022-08-22T00:23:56.570Z,22.51
2022-08-22T00:27:10.536Z,22.52
2022-08-22T00:30:34.561Z,22.47
2022-08-22T00:33:47.603Z,22.39
2022-08-22T00:37:12.611Z,22.45
2022-08-22T00:40:24.634Z,22.51
2022-08-22T00:43:59.645Z,22.42
2022-08-22T00:47:42.634Z,22.39
2022-08-22T00:51:13.607Z,22.39
2022-08-22T00:54:25.611Z,22.30
2022-08-22T00:57:52.708Z,22.18
2022-08-22T01:01:06.742Z,22.19
2022-08-22T01:04:43.672Z,22.18
2022-08-22T01:08:04.658Z,22.20
2022-08-22T01:11:30.657Z,22.17
2022-08-22T01:14:45.698Z,22.10
2022-08-22T01:18:31.722Z,22.02
2022-08-22T01:22:11.720Z,21.97
2022-08-22T01:25:41.799Z,22.03
2022-08-22T01:29:16.745Z,21.91
2022-08-22T01:33:13.748Z,21.95
2022-08-22T01:36:35.770Z,21.87
2022-08-22T01:40:03.823Z,21.82
2022-08-22T01:43:58.646Z,21.80
2022-08-22T01:46:59.769Z,21.90
2022-08-22T01:50:11.820Z,21.88
2022-08-22T01:53:37.802Z,21.76
2022-08-22T01:56:49.815Z,21.72
2022-08-22T02:00:14.832Z,21.68
2022-08-22T02:03:39.872Z,21.65
2022-08-22T02:06:55.886Z,21.63
2022-08-22T02:10:25.852Z,21.64
2022-08-22T02:13:50.900Z,21.62
2022-08-22T02:17:16.871Z,21.47
2022-08-22T02:20:28.857Z,21.55
2022-08-22T02:23:52.867Z,21.58
2022-08-22T02:27:06.855Z,21.64
2022-08-22T02:30:33.916Z,21.43
2022-08-22T02:33:58.954Z,21.45
2022-08-22T02:37:23.958Z,21.48
2022-08-22T02:40:37.949Z,21.47
2022-08-22T02:44:05.967Z,21.41
2022-08-22T02:47:18.003Z,21.46
2022-08-22T02:50:42.979Z,21.48
2022-08-22T02:53:55.025Z,21.54
2022-08-22T02:57:19.995Z,21.43
2022-08-22T03:00:35.063Z,21.47
2022-08-22T03:04:03.052Z,21.36
2022-08-22T03:07:32.040Z,21.35
2022-08-22T03:10:57.058Z,21.39
2022-08-22T03:14:13.026Z,21.44
2022-08-22T03:17:39.029Z,21.39
2022-08-22T03:21:04.068Z,21.41
2022-08-22T03:24:31.144Z,21.42
2022-08-22T03:27:45.347Z,21.38
2022-08-22T03:31:10.094Z,21.28
2022-08-22T03:34:42.123Z,21.32
2022-08-22T03:38:06.152Z,21.27
2022-08-22T03:41:22.252Z,21.38
2022-08-22T03:44:51.137Z,21.41
2022-08-22T03:48:08.143Z,21.30
2022-08-22T03:51:38.144Z,21.31
2022-08-22T03:55:15.177Z,21.36
2022-08-22T03:59:09.955Z,21.30
2022-08-22T04:02:45.217Z,21.32
2022-08-22T04:06:13.195Z,21.15
2022-08-22T04:09:48.200Z,21.07
2022-08-22T04:13:24.889Z,21.08
2022-08-22T04:16:39.234Z,21.18
2022-08-22T04:20:16.664Z,21.13
2022-08-22T04:24:05.239Z,21.06
2022-08-22T04:27:31.280Z,21.11
2022-08-22T04:30:44.270Z,21.14
2022-08-22T04:34:08.299Z,21.07
2022-08-22T04:37:20.392Z,21.14
2022-08-22T04:40:45.341Z,21.11
2022-08-22T04:44:02.318Z,21.09
2022-08-22T04:47:29.347Z,21.10
2022-08-22T04:50:43.273Z,21.04
2022-08-22T04:54:13.394Z,21.08
2022-08-22T04:57:32.356Z,21.18
2022-08-22T05:01:02.509Z,21.13
2022-08-22T05:04:16.441Z,21.04
2022-08-22T05:07:40.381Z,21.14
2022-08-22T05:10:52.422Z,21.12
2022-08-22T05:14:17.438Z,21.17
2022-08-22T05:17:31.550Z,21.03
2022-08-22T05:20:58.598Z,21.09
2022-08-22T05:24:11.437Z,21.20
2022-08-22T05:27:38.447Z,20.99
2022-08-22T05:30:50.471Z,21.13
2022-08-22T05:34:17.140Z,21.12
2022-08-22T05:37:30.490Z,21.14
2022-08-22T05:40:57.500Z,21.21
2022-08-22T05:44:09.528Z,21.27
2022-08-22T05:47:37.550Z,21.22
2022-08-22T05:50:51.527Z,21.26
2022-08-22T05:54:15.538Z,21.31
2022-08-22T05:57:29.568Z,21.24
2022-08-22T06:00:53.560Z,21.27
2022-08-22T06:04:20.583Z,21.24
2022-08-22T06:07:34.549Z,21.29
2022-08-22T06:10:58.620Z,21.21
2022-08-22T06:14:13.037Z,21.23
2022-08-22T06:17:35.599Z,21.26
2022-08-22T06:20:47.630Z,21.29
2022-08-22T06:24:14.644Z,21.34
2022-08-22T06:27:26.644Z,21.36
2022-08-22T06:30:50.653Z,21.48
2022-08-22T06:34:03.635Z,21.44
2022-08-22T06:37:30.679Z,21.57
2022-08-22T06:40:44.680Z,21.54
2022-08-22T06:44:09.679Z,21.50
2022-08-22T06:47:24.777Z,21.54
2022-08-22T06:50:49.734Z,21.61
2022-08-22T06:54:03.751Z,21.63
2022-08-22T06:57:29.761Z,21.80
2022-08-22T07:00:41.837Z,21.87
2022-08-22T07:04:06.769Z,22.08
2022-08-22T07:07:18.786Z,22.14
2022-08-22T07:10:42.770Z,22.16
2022-08-22T07:13:56.820Z,22.13
2022-08-22T07:17:21.783Z,22.03
2022-08-22T07:20:33.819Z,22.09
2022-08-22T07:23:58.800Z,22.20
2022-08-22T07:27:10.849Z,22.23
2022-08-22T07:30:36.827Z,22.22
2022-08-22T07:33:53.889Z,22.32
2022-08-22T07:37:18.837Z,22.39
2022-08-22T07:40:31.849Z,22.36
2022-08-22T07:43:55.875Z,22.29
2022-08-22T07:47:09.891Z,22.33
2022-08-22T07:50:34.866Z,22.48
2022-08-22T07:53:47.961Z,22.58
2022-08-22T07:57:13.940Z,22.48
2022-08-22T08:00:25.916Z,22.64
2022-08-22T08:03:54.988Z,22.75
2022-08-22T08:07:06.960Z,22.83
2022-08-22T08:10:33.013Z,22.86
2022-08-22T08:13:44.982Z,22.96
2022-08-22T08:17:10.009Z,23.06
2022-08-22T08:20:29.019Z,23.05
2022-08-22T08:23:53.988Z,23.27
2022-08-22T08:27:08.426Z,23.38
2022-08-22T08:30:33.981Z,23.52
2022-08-22T08:33:49.025Z,23.50
2022-08-22T08:37:16.029Z,23.51
2022-08-22T08:40:28.048Z,23.53
2022-08-22T08:43:52.070Z,23.45
2022-08-22T08:47:28.088Z,23.79
2022-08-22T08:50:56.203Z,23.93
2022-08-22T08:54:17.104Z,24.14
2022-08-22T08:57:41.093Z,24.29
2022-08-22T09:00:54.207Z,24.41
2022-08-22T09:04:23.127Z,24.62
2022-08-22T09:07:55.361Z,24.82
2022-08-22T09:11:32.286Z,24.84
2022-08-22T09:14:47.163Z,25.15
2022-08-22T09:18:18.418Z,25.29
2022-08-22T09:21:48.190Z,25.53
2022-08-22T09:25:25.222Z,25.70
2022-08-22T09:28:39.227Z,25.83
2022-08-22T09:32:04.170Z,25.94
2022-08-22T09:35:20.198Z,25.96
2022-08-22T09:38:51.237Z,26.15
2022-08-22T09:42:03.256Z,26.34
2022-08-22T09:45:51.280Z,26.39
2022-08-22T09:49:07.255Z,26.37
2022-08-22T09:52:34.040Z,26.47
2022-08-22T09:55:50.178Z,26.59
2022-08-22T09:59:13.318Z,26.73
2022-08-22T10:02:27.283Z,26.91
2022-08-22T10:05:51.288Z,26.71
2022-08-22T10:09:03.287Z,27.00
2022-08-22T10:12:28.403Z,27.19
2022-08-22T10:15:40.315Z,27.26
2022-08-22T10:19:06.345Z,27.23
2022-08-22T10:22:44.632Z,27.03
2022-08-22T10:26:08.343Z,27.48
2022-08-22T10:29:25.376Z,27.59
2022-08-22T10:32:54.454Z,27.48
2022-08-22T10:36:12.013Z,27.70
2022-08-22T10:39:34.405Z,27.62
2022-08-22T10:42:49.434Z,27.96
2022-08-22T10:46:14.433Z,28.05
2022-08-22T10:49:28.679Z,28.18
2022-08-22T10:52:53.499Z,28.28
2022-08-22T10:56:05.515Z,28.69
2022-08-22T10:59:30.489Z,28.76
2022-08-22T11:03:01.649Z,28.95
2022-08-22T11:06:25.542Z,29.10
2022-08-22T11:09:42.506Z,29.22
2022-08-22T11:13:07.521Z,29.57
2022-08-22T11:16:24.696Z,29.72
2022-08-22T11:19:51.553Z,29.78
2022-08-22T11:23:05.548Z,30.03
2022-08-22T11:26:47.266Z,30.07
2022-08-22T11:29:56.663Z,30.32
2022-08-22T11:33:47.325Z,30.50
2022-08-22T11:36:50.602Z,30.35
2022-08-22T11:40:20.774Z,30.65
2022-08-22T11:43:38.592Z,30.67
2022-08-22T11:47:03.611Z,30.68
2022-08-22T11:50:17.615Z,30.84
2022-08-22T11:53:43.709Z,31.17
2022-08-22T11:57:07.654Z,31.13
2022-08-22T12:00:39.688Z,31.79
2022-08-22T12:04:25.660Z,31.99
2022-08-22T12:07:37.706Z,32.23
2022-08-22T12:11:01.676Z,32.67
2022-08-22T12:14:13.700Z,32.80
2022-08-22T12:17:55.558Z,33.02
2022-08-22T12:21:00.908Z,32.95
2022-08-22T12:24:39.728Z,32.73
2022-08-22T12:28:13.916Z,33.23
2022-08-22T12:31:37.735Z,33.65
2022-08-22T12:34:51.770Z,33.65
2022-08-22T12:38:29.286Z,33.68
2022-08-22T12:41:35.774Z,34.05
2022-08-22T12:45:06.589Z,34.10
2022-08-22T12:48:20.800Z,34.39
2022-08-22T12:51:51.958Z,34.34
2022-08-22T12:55:33.828Z,34.51
2022-08-22T12:59:01.903Z,34.73
2022-08-22T13:02:13.807Z,35.05
2022-08-22T13:05:41.080Z,35.26
2022-08-22T13:08:51.866Z,35.47
2022-08-22T13:12:20.104Z,35.71
2022-08-22T13:15:28.872Z,35.67
2022-08-22T13:18:56.887Z,35.86
2022-08-22T13:22:08.861Z,36.02
2022-08-22T13:25:34.910Z,36.05
2022-08-22T13:28:46.937Z,36.14
2022-08-22T13:32:11.922Z,36.09
2022-08-22T13:35:24.469Z,36.05
2022-08-22T13:38:47.942Z,36.06
2022-08-22T13:42:14.408Z,36.13
2022-08-22T13:45:34.952Z,36.06
2022-08-22T13:48:46.982Z,35.97
2022-08-22T13:52:14.455Z,35.99
2022-08-22T13:55:24.985Z,36.10
2022-08-22T13:58:49.980Z,36.07
2022-08-22T14:02:03.101Z,36.11
2022-08-22T14:05:27.049Z,36.06
2022-08-22T14:08:39.023Z,36.09
2022-08-22T14:12:03.024Z,36.06
2022-08-22T14:15:22.039Z,35.86
2022-08-22T14:18:50.043Z,35.91
2022-08-22T14:22:03.086Z,35.91
2022-08-22T14:25:27.058Z,35.82
2022-08-22T14:28:45.088Z,35.86
2022-08-22T14:32:23.330Z,35.83
2022-08-22T14:35:37.872Z,35.80
2022-08-22T14:39:01.092Z,35.78
2022-08-22T14:42:13.122Z,35.78
2022-08-22T14:45:38.178Z,35.76
2022-08-22T14:48:55.089Z,35.76
2022-08-22T14:52:21.173Z,35.74
2022-08-22T14:55:34.175Z,35.78
2022-08-22T14:58:59.175Z,35.88
2022-08-22T15:02:18.158Z,35.97
2022-08-22T15:05:44.953Z,36.01
2022-08-22T15:08:56.181Z,35.96
2022-08-22T15:12:20.195Z,36.08
2022-08-22T15:15:33.210Z,36.11
2022-08-22T15:18:58.250Z,35.98
2022-08-22T15:22:13.525Z,36.04
2022-08-22T15:25:37.433Z,36.02
2022-08-22T15:28:52.640Z,35.91
2022-08-22T15:32:14.275Z,35.93
2022-08-22T15:35:30.046Z,35.88
2022-08-22T15:38:55.288Z,35.83
2022-08-22T15:42:10.288Z,35.78
2022-08-22T15:45:43.897Z,35.74
2022-08-22T15:48:54.305Z,35.69
2022-08-22T15:52:18.360Z,35.64
2022-08-22T15:55:34.407Z,35.58
2022-08-22T15:59:00.379Z,35.53
2022-08-22T16:02:14.459Z,35.47
2022-08-22T16:05:44.369Z,35.43
2022-08-22T16:08:56.392Z,35.40
2022-08-22T16:12:22.396Z,35.35
2022-08-22T16:15:37.403Z,35.34
2022-08-22T16:19:04.384Z,35.34
2022-08-22T16:22:37.423Z,35.35
2022-08-22T16:26:08.463Z,35.37
2022-08-22T16:29:22.405Z,35.38
2022-08-22T16:32:47.444Z,35.37
2022-08-22T16:36:06.439Z,35.34
2022-08-22T16:39:32.460Z,35.28
2022-08-22T16:42:51.481Z,35.22
2022-08-22T16:46:17.456Z,35.17
2022-08-22T16:49:29.534Z,35.12
2022-08-22T16:53:09.491Z,35.05
2022-08-22T16:56:30.523Z,34.97
2022-08-22T17:00:04.581Z,34.86
2022-08-22T17:03:24.522Z,34.76
2022-08-22T17:06:51.546Z,34.58
2022-08-22T17:10:12.388Z,34.47
2022-08-22T17:13:34.604Z,34.36
2022-08-22T17:16:53.400Z,34.02
2022-08-22T17:20:20.580Z,33.95
2022-08-22T17:23:33.605Z,33.88
2022-08-22T17:27:02.595Z,33.74
2022-08-22T17:30:24.583Z,33.63
2022-08-22T17:33:51.701Z,33.44
2022-08-22T17:37:08.644Z,33.34
2022-08-22T17:40:36.640Z,33.18
2022-08-22T17:43:59.634Z,33.13
2022-08-22T17:47:24.660Z,33.05
2022-08-22T17:50:36.722Z,32.90
2022-08-22T17:54:02.706Z,32.83
2022-08-22T17:57:15.669Z,32.70
2022-08-22T18:00:40.757Z,32.65
2022-08-22T18:04:04.684Z,32.49
2022-08-22T18:07:16.765Z,32.43
2022-08-22T18:10:44.718Z,32.14
2022-08-22T18:14:04.940Z,32.10
2022-08-22T18:17:36.762Z,31.97
2022-08-22T18:20:48.778Z,31.89
2022-08-22T18:24:12.762Z,31.72
2022-08-22T18:27:29.636Z,31.59
2022-08-22T18:30:52.765Z,31.49
2022-08-22T18:34:05.790Z,31.36
2022-08-22T18:37:30.898Z,31.20
2022-08-22T18:40:49.774Z,30.97
2022-08-22T18:44:12.878Z,30.84
2022-08-22T18:47:24.836Z,30.66
2022-08-22T18:50:52.948Z,30.47
2022-08-22T18:54:06.890Z,30.32
2022-08-22T18:57:38.732Z,30.25
2022-08-22T19:00:46.878Z,30.09
2022-08-22T19:04:13.949Z,29.84
2022-08-22T19:07:38.875Z,29.78
2022-08-22T19:11:05.896Z,29.55
2022-08-22T19:14:25.902Z,29.40
2022-08-22T19:18:09.065Z,29.28
2022-08-22T19:21:54.444Z,29.13
2022-08-22T19:25:40.007Z,29.00
2022-08-22T19:28:51.941Z,28.87
2022-08-22T19:32:16.049Z,28.66
2022-08-22T19:35:38.997Z,28.66
2022-08-22T19:39:16.004Z,28.37
2022-08-22T19:42:30.994Z,28.24
2022-08-22T19:45:58.015Z,28.13
2022-08-22T19:49:10.059Z,27.82
2022-08-22T19:52:37.059Z,27.77
2022-08-22T19:55:53.115Z,27.68
2022-08-22T19:59:20.069Z,27.60
2022-08-22T20:02:32.158Z,27.58
2022-08-22T20:06:02.231Z,27.42
2022-08-22T20:09:15.133Z,27.38
2022-08-22T20:12:39.131Z,27.19
2022-08-22T20:15:51.108Z,27.17
2022-08-22T20:19:20.125Z,27.05
2022-08-22T20:22:32.131Z,26.87
2022-08-22T20:26:02.376Z,26.86
2022-08-22T20:29:14.184Z,26.77
2022-08-22T20:32:39.228Z,26.67
2022-08-22T20:35:51.202Z,26.52
2022-08-22T20:39:15.183Z,26.42
2022-08-22T20:42:29.180Z,26.35
2022-08-22T20:45:54.210Z,26.31
2022-08-22T20:49:06.232Z,26.25
2022-08-22T20:52:30.198Z,26.22
2022-08-22T20:55:42.276Z,26.05
2022-08-22T20:59:08.277Z,26.01
2022-08-22T21:02:20.366Z,25.89
2022-08-22T21:05:45.257Z,25.85
2022-08-22T21:08:46.308Z,25.75
2022-08-22T21:12:01.500Z,25.74
2022-08-22T21:15:18.291Z,25.61
2022-08-22T21:18:48.290Z,25.62
2022-08-22T21:21:49.335Z,25.59
2022-08-22T21:25:14.330Z,25.54
2022-08-22T21:28:26.351Z,25.48
2022-08-22T21:31:52.409Z,25.48
2022-08-22T21:35:07.367Z,25.42
2022-08-22T21:38:31.373Z,25.33
2022-08-22T21:41:50.368Z,25.27
2022-08-22T21:45:19.369Z,25.17
2022-08-22T21:49:00.398Z,25.11
2022-08-22T21:52:13.403Z,25.00
2022-08-22T21:55:38.432Z,24.96
2022-08-22T21:59:02.433Z,24.92
2022-08-22T22:02:14.432Z,24.92
2022-08-22T22:05:43.450Z,24.86
2022-08-22T22:08:47.497Z,24.80
2022-08-22T22:12:00.619Z,24.72
2022-08-22T22:15:12.457Z,24.76
2022-08-22T22:18:36.496Z,24.70
2022-08-22T22:21:50.495Z,24.66
2022-08-22T22:25:41.357Z,24.62
2022-08-22T22:28:26.542Z,24.67
2022-08-22T22:31:50.538Z,24.59
2022-08-22T22:34:51.511Z,24.57
2022-08-22T22:38:23.920Z,24.56
2022-08-22T22:41:32.551Z,24.41
2022-08-22T22:44:47.487Z,24.39
2022-08-22T22:47:57.605Z,24.30
2022-08-22T22:51:24.577Z,24.24
2022-08-22T22:54:38.609Z,24.22
2022-08-22T22:58:02.667Z,24.13
2022-08-22T23:01:03.682Z,24.01
2022-08-22T23:04:28.658Z,23.98
2022-08-22T23:07:40.621Z,23.89
2022-08-22T23:11:06.661Z,23.88
2022-08-22T23:14:18.632Z,23.72
2022-08-22T23:17:42.671Z,23.64
2022-08-22T23:20:43.673Z,23.53
2022-08-22T23:24:07.726Z,23.57
2022-08-22T23:27:20.713Z,23.58
2022-08-22T23:30:44.711Z,23.64
2022-08-22T23:33:45.839Z,23.42
2022-08-22T23:37:09.745Z,23.47
2022-08-22T23:40:10.825Z,23.48
2022-08-22T23:43:35.780Z,23.48
2022-08-22T23:46:47.749Z,23.41
2022-08-22T23:50:05.836Z,23.22
2022-08-22T23:53:01.810Z,23.31
2022-08-22T23:56:32.783Z,23.24
2022-08-22T23:59:57.461Z,23.15
